AirNav   Duncan Aviation - Near you to keep you 
flying
 
 1731 users online  

P19 Stellar Airpark
Chandler, Arizona, USA

GOING TO CHANDLER?


FAA INFORMATION EFFECTIVE 15 JULY 2021

Location

FAA Identifier: P19
Lat/Long: 33-17-55.5760N 111-54-56.8350W
33-17.926267N 111-54.947250W
33.2987711,-111.9157875
(estimated)
Elevation: 1178.5 ft. / 359.2 m (surveyed)
Variation: 13E (1980)
From city: 3 miles W of CHANDLER, AZ
Time zone: UTC -7 (year round; does not observe DST)
Zip code: 85226

Airport Operations

Airport use: Open to the public
Control tower: no
ARTCC: ALBUQUERQUE CENTER
FSS: PRESCOTT FLIGHT SERVICE STATION
NOTAMs facility: PRC (NOTAM-D service available)
Attendance: UNATNDD
Pattern altitude: 2001.5 ft. MSL
Wind indicator: yes
Segmented circle: no
Lights: DUSK-DAWN. ACTVT ACTVT REIL RWY 17 & 35; MIRL RWY 17/35 - CTAF.
Beacon: white-green (lighted land airport)
Operates sunset to sunrise.

Airport Communications

CTAF/UNICOM: 122.975
PHOENIX APPROACH: 123.7
PHOENIX DEPARTURE: 123.7
WX AWOS-3PT at CHD (6 nm E): PHONE 480-814-9952
WX ASOS at PHX (9 nm NW): PHONE 602-231-8557
WX AWOS-3 at IWA (13 nm E): 133.5 (480-988-9428)
WX ASOS at FFZ (14 nm NE): PHONE 480-641-4111
WX AWOS-3 at A39 (18 nm S): 126.900 (520-568-7704)
WX ASOS at SDL (19 nm N): PHONE 480-483-3049

Nearby radio navigation aids

VOR radial/distance  VOR name  Freq  Var
PXRr149/8.5PHOENIX VORTAC115.6012E
IWAr256/13.3WILLIE VORTAC113.3013E
TFDr347/24.8STANFIELD VORTAC114.8012E

Airport Services

Fuel available: 100LL
100LL:FOR FUEL INFO CTC FBO AT 602-793-6383.
Airframe service: MINOR
Powerplant service: MINOR
Bulk oxygen: NONE

Runway Information

Runway 17/35

Dimensions: 4417 x 80 ft. / 1346 x 24 m
Surface: asphalt, in good condition
Runway edge lights: medium intensity
RUNWAY 17  RUNWAY 35
Latitude: 33-18.290390N33-17.562150N
Longitude: 111-54.946942W111-54.947567W
Elevation: 1178.0 ft.1173.7 ft.
Traffic pattern: leftleft
Runway heading: 167 magnetic, 180 true347 magnetic, 000 true
Displaced threshold: 366 ft.349 ft.
Declared distances: LDA:4051LDA:4068
Markings: nonprecision, in good conditionnonprecision, in good condition
Visual slope indicator: 2-light PAPI on left (3.25 degrees glide path)2-light PAPI on right (3.25 degrees glide path)
Runway end identifier lights: yesyes
Touchdown point: yes, no lightsyes, no lights
Obstructions: 15 ft. road, 201 ft. from runway
RWY. 17 +8 FT. FENCE 130 FT. FROM END OF RUNWAY, +15 FT. ROADWAY 164 FT. FROM END OF RUNWAY ACROSS THRESHOLD.
12 ft. tree, 210 ft. from runway, 110 ft. left of centerline
RWY 35 +6 FT. FENCE 80 FT. FROM END OF RUNWAY ACROSS THRESHOLD, +15 FT. ROADWAY 85 FT. FROM END OF RUNWAY ACROSS THRESHOLD.

Airport Ownership and Management from official FAA records

Ownership: Privately-owned
Owner: STELLAR RUNWAY UTILIZERS ASSN, INC.
11 NORTH STELLAR PARKWAY
CHANDLER, AZ 85226
Phone 480-295-2683
Manager: BOD, STELLAR RUNWAY UTILIZERS ASSN
11 NORTH STELLAR PARKWAY
CHANDLER, AZ 85226-3715
Phone 480-295-2683

Airport Operational Statistics

Aircraft based on the field: 141
Single engine airplanes: 119
Multi engine airplanes: 4
Jet airplanes: 10
Helicopters: 4
Gliders airplanes: 1
Ultralights: 3
    
Aircraft operations: avg 110/day *
80% local general aviation
20% transient general aviation
* for 12-month period ending 14 April 2021

Additional Remarks

BE ALERT TO NUMEROUS NO RADIO AIRCRAFT INVOF ARPT.
BIRDS ON OR INVOF ARPT.
PPR REQUIRED FOR AIRCRAFT CERTIFICATED FOR 15000 GROSS TAKEOFF WEIGHT NOT BASED AT ARPT.
FOR CD CTC PHOENIX APCH AT 602-306-2565.
TRAINING ARPT TGL PROHIBITED. HELO TRAINING PROHIBITED.
AVOID OVERFLIGHT OF NOISE SENSITIVE AREAS WEST OF RWY 17/35 AND NORTH OF ARPT.
COMMERCIAL AND STUDENT TRAINING OPERATIONS BY PERMIT ONLY.
CALM WIND RWY 17.
PRACTICE INSTRUMENT APPROACHES IN VFR CONDITIONS NOT AUTHORIZED.
FLOOD IRRIGATION BETWEEN RWY AND TWY WITH STANDING WATER UP TO 1 FT DEPTH ON IRREGULAR SCHEDULE.
ALL RUNUPS ON EAST SIDE RUNUP AREAS.

Instrument Procedures

NOTE: All procedures below are presented as PDF files. If you need a reader for these files, you should download the free Adobe Reader.

NOT FOR NAVIGATION. Please procure official charts for flight.
FAA instrument procedures published for use from 15 July 2021 at 0901Z to 12 August 2021 at 0900z.

 
STARs - Standard Terminal Arrivals
ARLIN FOUR   download (337KB)
BLYTHE FIVE   download (288KB)
SUNSS EIGHT   download (279KB)
 
IAPs - Instrument Approach Procedures
VOR-A   download (204KB)
NOTE: Special Take-Off Minimums/Departure Procedures apply   download (252KB)

Other nearby airports with instrument procedures:

KCHD - Chandler Municipal Airport (6 nm E)
KPHX - Phoenix Sky Harbor International Airport (9 nm NW)
KIWA - Phoenix-Mesa Gateway Airport (13 nm E)
KFFZ - Falcon Field Airport (14 nm NE)
KSDL - Scottsdale Airport (19 nm N)
 
Loc | Ops | Rwys | IFR | FBO | Links
Com | Nav | Svcs | Stats | Notes
Area around P19 (Stellar Airpark)
 
Road maps at: MapQuest Bing Google
 
Aerial photo
WARNING: Photo may not be current or correct
Aerial photo of P19 (Stellar Airpark)
Taken in April 2006

Do you have a better or more recent aerial photo of Stellar Airpark that you would like to share? If so, please send us your photo.

 
Sectional chart

 
Airport distance calculator
Flying to Stellar Airpark? Find the distance to fly.

From to P19

Sunrise and sunset
Times for 29-Jul-2021
 Local
(UTC-7)
 Zulu
(UTC)
Morning civil twilight05:1212:12
Sunrise05:3912:39
Sunset19:2902:29
Evening civil twilight19:5602:56

Current date and time
Zulu (UTC)  29-Jul-2021 17:22:45
Local (UTC-7)  29-Jul-2021 10:22:45
 
METAR
KCHD 
5nm E 
291647Z 12011KT 10SM BKN200 34/17 A2991
KPHX 
11nm NW 
291651Z 15009KT 10SM FEW080 SCT180 BKN230 BKN250 36/16 A2988 RMK AO2 SLP095 SHRA DSNT N AND E-SE T03560156
KIWA 
13nm E 
291655Z 13010KT 10SM BKN150 33/17 A2993
KFFZ 
14nm NE 
291654Z 03004KT 10SM FEW100 33/18 A2992 RMK AO2 RAB35E49 SLP103 P0000 T03280183
KA39 
18nm S 
291650Z AUTO 10007KT 10SM CLR 33/18 A2995 RMK AO2
KSDL 
19nm N 
291653Z 11003KT 10SM CLR 33/18 A2994 RMK AO2 SLP106 T03280183
TAF
KPHX 
11nm NW 
291512Z 2915/3018 11008KT P6SM FEW150 BKN250 FM292200 22010KT P6SM SCT120 SCT150 SCT250 FM300100 08020G30KT 6SM BLDU VCTS SCT070CB BKN120 OVC200 PROB30 3001/3004 VRB25G35KT 4SM TSRA BLDU BKN070CB FM300400 12008KT P6SM FEW070 BKN120 OVC250 FM300900 09005KT P6SM FEW080 SCT120 BKN250
KIWA 
13nm E 
291124Z 2912/3012 13006KT P6SM SCT120 BKN200 FM291300 12005KT P6SM BKN130 FM292000 24008KT P6SM SCT120 SCT160 SCT250 FM300000 09023G33KT 6SM BLDU VCTS SCT070CB BKN120 OVC200 TEMPO 3000/3003 VRB25G35KT 4SM TSRA BLDU BKN070CB FM300300 11012KT P6SM FEW070 BKN120 OVC250
KSDL 
19nm N 
291124Z 2912/3012 VRB03KT P6SM SCT120 BKN200 FM291300 VRB05KT P6SM BKN140 FM292000 27006KT P6SM FEW120 SCT160 SCT250 FM300000 08020G30KT P6SM VCTS SCT070CB BKN120 OVC200 TEMPO 3000/3003 VRB25G35KT 4SM TSRA BKN070CB FM300300 07015KT P6SM FEW070 BKN120 OVC250 FM300900 VRB04KT P6SM FEW080 SCT120 BKN250
NOTAMs
Click for the latest NOTAMs
NOTAMs are issued by the DoD/FAA and will open in a separate window not controlled by AirNav.

 

 
 

FBO, Fuel Providers, and Aircraft Ground Support

  
 Business Name 
 
 Contact 
 
 Services / Description 
 
Fuel Prices
 
Comments
  
 Stellar Fuel
UNICOM 122.975
602-793-6383
[email]
100 LL Available Now / Jet A+ Coming Soon

More info about Stellar Fuel
EPIC
100LL
SS $5.39 
 Updated 28-Jul-2021
 
   write
SS=Self service
Update Fuel Prices
 

Would you like to see your business listed on this page?

 If your business provides an interesting product or service to pilots, flight crews, aircraft, or users of the Stellar Airpark, you should consider listing it here.  To start the listing process, click on the button below
 
Add a business
 

Other Pages about Stellar Airpark

www.stellarairpark.org
 
Update a link
 
Copyright © AirNav, LLC. All rights reserved. Privacy Policy  Contact